| time (UTC) | temp C | wind direction | speed KPH | gust KPH | rain 1hr cm | rain 24hr cm | rain mn cm | humidity % | barometer mb |
| 20260507094814 | 22 | 60 | 9.7 | 0.0 | 0.00 | 0.00 | 0.00 | 36 | 1016.0 |
| 20260507093314 | 22 | 60 | 9.7 | 0.0 | 0.00 | 0.00 | 0.00 | 36 | 1016.0 |
| 20260507091815 | 22 | 80 | 9.7 | 0.0 | 0.00 | 0.00 | 0.00 | 38 | 1016.0 |
| 20260507090314 | 22 | 80 | 9.7 | 0.0 | 0.00 | 0.00 | 0.00 | 38 | 1016.0 |
| 20260507084814 | 21 | 90 | 12.9 | 0.0 | 0.00 | 0.00 | 0.00 | 43 | 1016.0 |
| 20260507083314 | 21 | 90 | 12.9 | 0.0 | 0.00 | 0.00 | 0.00 | 43 | 1016.0 |
| 20260507081814 | 20 | 80 | 14.5 | 0.0 | 0.00 | 0.00 | 0.00 | 46 | 1016.0 |
| 20260507080315 | 20 | 80 | 14.5 | 0.0 | 0.00 | 0.00 | 0.00 | 46 | 1016.0 |
| 20260507074814 | 17 | 60 | 9.7 | 0.0 | 0.00 | 0.00 | 0.00 | 56 | 1016.0 |
| 20260507073314 | 17 | 60 | 9.7 | 0.0 | 0.00 | 0.00 | 0.00 | 56 | 1016.0 |
| 20260507071814 | 17 | 60 | 12.9 | 0.0 | 0.00 | 0.00 | 0.00 | 56 | 1016.0 |
| 20260507070314 | 17 | 60 | 12.9 | 0.0 | 0.00 | 0.00 | 0.00 | 56 | 1016.0 |
| 20260507064814 | 16 | 70 | 11.3 | 0.0 | 0.00 | 0.00 | 0.00 | 59 | 1016.0 |
| 20260507063314 | 16 | 70 | 11.3 | 0.0 | 0.00 | 0.00 | 0.00 | 59 | 1016.0 |
| 20260507061826 | 13 | 60 | 11.3 | 0.0 | 0.00 | 0.00 | 0.00 | 72 | 1016.0 |
| 20260507060314 | 13 | 60 | 11.3 | 0.0 | 0.00 | 0.00 | 0.00 | 72 | 1016.0 |
| 20260507054814 | 12 | 70 | 12.9 | 0.0 | 0.00 | 0.00 | 0.00 | 72 | 1016.0 |
| 20260507053321 | 12 | 70 | 12.9 | 0.0 | 0.00 | 0.00 | 0.00 | 72 | 1016.0 |
| 20260507051814 | 12 | 70 | 12.9 | 0.0 | 0.00 | 0.00 | 0.00 | 77 | 1016.0 |
| 20260507050314 | 12 | 70 | 12.9 | 0.0 | 0.00 | 0.00 | 0.00 | 77 | 1016.0 |
| 20260507044814 | 11 | 60 | 9.7 | 0.0 | 0.00 | 0.00 | 0.00 | 82 | 1016.0 |
| 20260507043314 | 11 | 60 | 9.7 | 0.0 | 0.00 | 0.00 | 0.00 | 82 | 1016.0 |
| 20260507041814 | 10 | 40 | 4.8 | 0.0 | 0.00 | 0.00 | 0.00 | 88 | 1016.0 |
| 20260507040314 | 10 | 40 | 4.8 | 0.0 | 0.00 | 0.00 | 0.00 | 88 | 1016.0 |
| 20260507034814 | 8 | 40 | 8.0 | 0.0 | 0.00 | 0.00 | 0.00 | 87 | 1016.0 |
| 20260507033313 | 8 | 40 | 8.0 | 0.0 | 0.00 | 0.00 | 0.00 | 87 | 1016.0 |
| 20260507031814 | 8 | 50 | 8.0 | 0.0 | 0.00 | 0.00 | 0.00 | 87 | 1016.0 |
| 20260507030314 | 8 | 50 | 8.0 | 0.0 | 0.00 | 0.00 | 0.00 | 87 | 1016.0 |
| 20260507024814 | 8 | 60 | 8.0 | 0.0 | 0.00 | 0.00 | 0.00 | 87 | 1015.0 |
| 20260507023314 | 8 | 60 | 8.0 | 0.0 | 0.00 | 0.00 | 0.00 | 87 | 1015.0 |
| 20260507021814 | 10 | 50 | 8.0 | 0.0 | 0.00 | 0.00 | 0.00 | 82 | 1015.0 |
| 20260507020314 | 10 | 50 | 8.0 | 0.0 | 0.00 | 0.00 | 0.00 | 82 | 1015.0 |
| 20260507014814 | 8 | 60 | 8.0 | 0.0 | 0.00 | 0.00 | 0.00 | 82 | 1015.0 |
| 20260507013313 | 8 | 60 | 8.0 | 0.0 | 0.00 | 0.00 | 0.00 | 82 | 1015.0 |
| 20260507011814 | 10 | 60 | 8.0 | 0.0 | 0.00 | 0.00 | 0.00 | 82 | 1015.0 |
| 20260507010314 | 10 | 60 | 8.0 | 0.0 | 0.00 | 0.00 | 0.00 | 82 | 1015.0 |
| 20260507004814 | 10 | 50 | 8.0 | 0.0 | 0.00 | 0.00 | 0.00 | 82 | 1015.0 |
| 20260507003314 | 10 | 50 | 8.0 | 0.0 | 0.00 | 0.00 | 0.00 | 82 | 1015.0 |
| 20260507001814 | 10 | 40 | 9.7 | 0.0 | 0.00 | 0.00 | 0.00 | 82 | 1015.0 |
| 20260507000314 | 10 | 40 | 9.7 | 0.0 | 0.00 | 0.00 | 0.00 | 82 | 1015.0 |
| 20260506234814 | 11 | 20 | 9.7 | 0.0 | 0.00 | 0.00 | 0.00 | 77 | 1015.0 |
| 20260506233314 | 11 | 20 | 9.7 | 0.0 | 0.00 | 0.00 | 0.00 | 77 | 1015.0 |
| 20260506231815 | 12 | 30 | 11.3 | 0.0 | 0.00 | 0.00 | 0.00 | 63 | 1015.0 |
| 20260506230314 | 12 | 30 | 11.3 | 0.0 | 0.00 | 0.00 | 0.00 | 63 | 1015.0 |
| 20260506224813 | 12 | 60 | 8.0 | 0.0 | 0.00 | 0.00 | 0.00 | 63 | 1015.0 |
| 20260506223314 | 12 | 60 | 8.0 | 0.0 | 0.00 | 0.00 | 0.00 | 63 | 1015.0 |
| 20260506221814 | 13 | 90 | 12.9 | 0.0 | 0.00 | 0.00 | 0.00 | 59 | 1015.0 |
| 20260506220313 | 13 | 90 | 12.9 | 0.0 | 0.00 | 0.00 | 0.00 | 59 | 1015.0 |
| 20260506214830 | 16 | 100 | 11.3 | 0.0 | 0.00 | 0.00 | 0.00 | 48 | 1015.0 |
| 20260506213314 | 16 | 100 | 11.3 | 0.0 | 0.00 | 0.00 | 0.00 | 48 | 1015.0 |
| 20260506211814 | 17 | 110 | 12.9 | 0.0 | 0.00 | 0.00 | 0.00 | 49 | 1015.0 |
| 20260506210313 | 17 | 110 | 12.9 | 0.0 | 0.00 | 0.00 | 0.00 | 49 | 1015.0 |
| 20260506204815 | 17 | 110 | 12.9 | 0.0 | 0.00 | 0.00 | 0.00 | 56 | 1015.0 |
| 20260506203314 | 17 | 110 | 12.9 | 0.0 | 0.00 | 0.00 | 0.00 | 56 | 1015.0 |
| 20260506201814 | 17 | 110 | 12.9 | 0.0 | 0.00 | 0.00 | 0.00 | 56 | 1015.0 |
| 20260506200314 | 17 | 110 | 12.9 | 0.0 | 0.00 | 0.00 | 0.00 | 56 | 1015.0 |
| 20260506194833 | 17 | 110 | 16.1 | 0.0 | 0.00 | 0.00 | 0.00 | 56 | 1015.0 |
| 20260506193337 | 17 | 110 | 16.1 | 0.0 | 0.00 | 0.00 | 0.00 | 56 | 1015.0 |
| 20260506191815 | 17 | 100 | 14.5 | 0.0 | 0.00 | 0.00 | 0.00 | 59 | 1014.0 |
| 20260506190314 | 17 | 100 | 14.5 | 0.0 | 0.00 | 0.00 | 0.00 | 59 | 1014.0 |
| 20260506184819 | 17 | 90 | 16.1 | 0.0 | 0.00 | 0.00 | 0.00 | 56 | 1014.0 |
| 20260506183314 | 17 | 90 | 16.1 | 0.0 | 0.00 | 0.00 | 0.00 | 56 | 1014.0 |
| 20260506181814 | 18 | 90 | 16.1 | 0.0 | 0.00 | 0.00 | 0.00 | 52 | 1014.0 |
| 20260506180314 | 18 | 90 | 16.1 | 0.0 | 0.00 | 0.00 | 0.00 | 52 | 1014.0 |
| 20260506174814 | 20 | 100 | 16.1 | 0.0 | 0.00 | 0.00 | 0.00 | 49 | 1013.0 |
| 20260506173314 | 20 | 100 | 16.1 | 0.0 | 0.00 | 0.00 | 0.00 | 49 | 1013.0 |
| 20260506171814 | 22 | 90 | 17.7 | 0.0 | 0.00 | 0.00 | 0.00 | 44 | 1013.0 |
| 20260506170314 | 22 | 90 | 17.7 | 0.0 | 0.00 | 0.00 | 0.00 | 44 | 1013.0 |
| 20260506164814 | 22 | 90 | 17.7 | 0.0 | 0.00 | 0.00 | 0.00 | 41 | 1013.0 |
| 20260506163314 | 22 | 90 | 17.7 | 0.0 | 0.00 | 0.00 | 0.00 | 41 | 1013.0 |
| 20260506161814 | 23 | 90 | 17.7 | 0.0 | 0.00 | 0.00 | 0.00 | 39 | 1013.0 |
| 20260506160314 | 23 | 90 | 17.7 | 0.0 | 0.00 | 0.00 | 0.00 | 39 | 1013.0 |
| 20260506154815 | 25 | 90 | 20.9 | 0.0 | 0.00 | 0.00 | 0.00 | 36 | 1013.0 |
| 20260506153314 | 25 | 90 | 20.9 | 0.0 | 0.00 | 0.00 | 0.00 | 36 | 1013.0 |
| 20260506151814 | 25 | 100 | 16.1 | 0.0 | 0.00 | 0.00 | 0.00 | 36 | 1013.0 |
| 20260506150320 | 25 | 100 | 16.1 | 0.0 | 0.00 | 0.00 | 0.00 | 36 | 1013.0 |
| 20260506144814 | 26 | 120 | 12.9 | 0.0 | 0.00 | 0.00 | 0.00 | 34 | 1013.0 |
| 20260506143326 | 26 | 120 | 12.9 | 0.0 | 0.00 | 0.00 | 0.00 | 34 | 1013.0 |
| 20260506141814 | 26 | 100 | 12.9 | 0.0 | 0.00 | 0.00 | 0.00 | 34 | 1013.0 |
| 20260506140429 | 26 | 100 | 12.9 | 0.0 | 0.00 | 0.00 | 0.00 | 34 | 1013.0 |
| 20260506134839 | 25 | 130 | 12.9 | 0.0 | 0.00 | 0.00 | 0.00 | 36 | 1014.0 |
| 20260506133314 | 25 | 130 | 12.9 | 0.0 | 0.00 | 0.00 | 0.00 | 36 | 1014.0 |
| 20260506131814 | 26 | 130 | 12.9 | 0.0 | 0.00 | 0.00 | 0.00 | 34 | 1014.0 |
| 20260506130323 | 26 | 130 | 12.9 | 0.0 | 0.00 | 0.00 | 0.00 | 34 | 1014.0 |
| 20260506124814 | 26 | 80 | 11.3 | 0.0 | 0.00 | 0.00 | 0.00 | 34 | 1014.0 |
| 20260506123314 | 26 | 80 | 11.3 | 0.0 | 0.00 | 0.00 | 0.00 | 34 | 1014.0 |
| 20260506121814 | 25 | 11.3 | 0.0 | 0.00 | 0.00 | 0.00 | 39 | 1014.0 | |
| 20260506120314 | 25 | 11.3 | 0.0 | 0.00 | 0.00 | 0.00 | 39 | 1014.0 | |
| 20260506114814 | 25 | 120 | 12.9 | 0.0 | 0.00 | 0.00 | 0.00 | 39 | 1014.0 |
| 20260506113314 | 25 | 120 | 12.9 | 0.0 | 0.00 | 0.00 | 0.00 | 39 | 1014.0 |
| 20260506111814 | 25 | 120 | 14.5 | 0.0 | 0.00 | 0.00 | 0.00 | 39 | 1015.0 |
| 20260506110314 | 25 | 120 | 14.5 | 0.0 | 0.00 | 0.00 | 0.00 | 39 | 1015.0 |
| 20260506104814 | 23 | 110 | 14.5 | 0.0 | 0.00 | 0.00 | 0.00 | 39 | 1015.0 |
| 20260506103314 | 23 | 110 | 14.5 | 0.0 | 0.00 | 0.00 | 0.00 | 39 | 1015.0 |
| 20260506101814 | 23 | 11.3 | 0.0 | 0.00 | 0.00 | 0.00 | 36 | 1015.0 | |
| 20260506100314 | 23 | 11.3 | 0.0 | 0.00 | 0.00 | 0.00 | 36 | 1015.0 |